Time;durP1;ratioP1;P1;durP2;ratioP2;P2;SDS_P1;SDS_P2;PMS_P1;PMS_P2;Temp;Humidity;BMP_temperature;BMP_pressure;BME280_temperature;BME280_humidity;BME280_pressure;Samples;Min_cycle;Max_cycle;Signal;HPM_P1;HPM_P2
2021/12/12 00:00:35;;;;;;;9.63;5.40;;;-0.30;99.90;;;;;;2088740;28;20169;-70
2021/12/12 00:01:45;;;;;;;9.00;5.30;;;-0.40;99.90;;;;;;2089009;28;20597;-70
2021/12/12 00:03:01;;;;;;;9.05;4.60;;;-0.40;99.90;;;;;;2089498;28;20273;-69
2021/12/12 00:04:13;;;;;;;9.00;5.03;;;-0.40;99.90;;;;;;2088819;28;20160;-69
2021/12/12 00:05:18;;;;;;;10.95;5.40;;;-0.40;99.90;;;;;;2089116;28;20172;-70
2021/12/12 00:06:21;;;;;;;8.63;4.82;;;-0.40;99.90;;;;;;2089269;28;20188;-69
2021/12/12 00:07:29;;;;;;;9.20;5.20;;;-0.40;99.90;;;;;;2089191;28;20681;-69
2021/12/12 00:08:30;;;;;;;7.82;4.85;;;-0.30;99.90;;;;;;2089363;28;20260;-69
2021/12/12 00:09:43;;;;;;;9.68;5.85;;;-0.30;99.90;;;;;;2088590;28;20196;-69
2021/12/12 00:10:50;;;;;;;9.38;5.10;;;-0.30;99.90;;;;;;2088673;28;20191;-69
2021/12/12 00:11:52;;;;;;;9.20;5.45;;;-0.30;99.90;;;;;;2088784;28;20207;-69
2021/12/12 00:13:06;;;;;;;10.07;5.53;;;-0.40;99.90;;;;;;2088815;28;20178;-69
2021/12/12 00:14:17;;;;;;;9.30;5.13;;;-0.40;99.90;;;;;;2089484;28;20252;-69
2021/12/12 00:15:23;;;;;;;8.13;5.03;;;-0.40;99.90;;;;;;2088841;28;20595;-69
2021/12/12 00:16:24;;;;;;;10.88;5.57;;;-0.30;99.90;;;;;;2081450;28;20181;-69
2021/12/12 00:17:26;;;;;;;9.10;5.53;;;-0.40;99.90;;;;;;2088671;28;20255;-69
2021/12/12 00:18:27;;;;;;;8.68;4.95;;;-0.40;99.90;;;;;;2089497;28;20171;-69
2021/12/12 00:19:29;;;;;;;8.47;4.97;;;-0.30;99.90;;;;;;2089463;28;20176;-69
2021/12/12 00:20:31;;;;;;;8.50;5.60;;;-0.30;99.90;;;;;;2089208;28;20648;-74
2021/12/12 00:21:34;;;;;;;6.22;4.47;;;-0.30;99.90;;;;;;2089361;28;20644;-69
2021/12/12 00:22:36;;;;;;;7.35;4.47;;;-0.30;99.90;;;;;;2089452;28;20208;-69
2021/12/12 00:23:37;;;;;;;9.38;4.60;;;-0.40;99.90;;;;;;2088882;28;20271;-69
2021/12/12 00:24:40;;;;;;;8.77;5.43;;;-0.40;99.90;;;;;;2080693;28;20690;-69
2021/12/12 00:25:48;;;;;;;7.60;5.13;;;-0.40;99.90;;;;;;2080644;28;20231;-69
2021/12/12 00:26:53;;;;;;;7.80;5.07;;;-0.40;99.90;;;;;;2088711;28;20169;-69
2021/12/12 00:27:54;;;;;;;10.00;5.07;;;-0.30;99.90;;;;;;2088574;28;20756;-69
2021/12/12 00:28:55;;;;;;;8.47;4.83;;;-0.40;99.90;;;;;;2088709;28;20187;-69
2021/12/12 00:30:02;;;;;;;9.03;5.17;;;-0.40;99.90;;;;;;2088480;28;20415;-69
2021/12/12 00:31:10;;;;;;;7.55;4.82;;;-0.30;99.90;;;;;;2081297;28;20408;-69
2021/12/12 00:32:15;;;;;;;6.88;4.65;;;-0.30;99.90;;;;;;2088786;28;20218;-69
2021/12/12 00:33:16;;;;;;;7.35;4.97;;;-0.30;99.90;;;;;;2089439;28;20167;-69
2021/12/12 00:34:18;;;;;;;8.52;5.47;;;-0.40;99.90;;;;;;2089255;28;20184;-69
2021/12/12 00:35:20;;;;;;;7.30;5.00;;;-0.40;99.90;;;;;;2088705;28;20173;-69
2021/12/12 00:36:24;;;;;;;8.52;5.18;;;-0.40;99.90;;;;;;2080521;28;20254;-69
2021/12/12 00:37:27;;;;;;;5.88;4.32;;;-0.40;99.90;;;;;;2080826;28;20623;-69
2021/12/12 00:38:31;;;;;;;7.70;4.70;;;-0.40;99.90;;;;;;2077263;28;20196;-69
2021/12/12 00:39:36;;;;;;;10.07;4.95;;;-0.50;99.90;;;;;;2080565;28;20204;-69
2021/12/12 00:40:43;;;;;;;7.13;4.65;;;-0.50;99.90;;;;;;2080359;28;20193;-69
2021/12/12 00:42:15;;;;;;;6.97;4.18;;;-0.50;99.90;;;;;;2080431;28;20200;-69
2021/12/12 00:43:26;;;;;;;7.93;4.70;;;-0.50;99.90;;;;;;2083156;28;20193;-69
2021/12/12 00:44:28;;;;;;;7.25;4.40;;;-0.50;99.90;;;;;;2088581;28;20206;-69
2021/12/12 00:45:31;;;;;;;10.10;4.97;;;-0.40;99.90;;;;;;2080309;28;20629;-69
2021/12/12 00:46:32;;;;;;;8.55;5.10;;;-0.40;99.90;;;;;;2072397;28;20233;-69
2021/12/12 00:47:33;;;;;;;8.52;4.35;;;-0.40;99.90;;;;;;2080184;28;20184;-69
2021/12/12 00:48:35;;;;;;;8.00;4.30;;;-0.40;99.90;;;;;;2080282;28;20190;-69
2021/12/12 00:49:39;;;;;;;6.28;4.32;;;-0.40;99.90;;;;;;2072379;28;20183;-69
2021/12/12 00:50:42;;;;;;;7.13;4.18;;;-0.40;99.90;;;;;;2081007;28;20177;-69
2021/12/12 00:51:45;;;;;;;8.60;4.03;;;-0.40;99.90;;;;;;2082475;28;20183;-69
2021/12/12 00:52:48;;;;;;;5.72;3.88;;;-0.40;99.90;;;;;;2090072;28;20208;-69
2021/12/12 00:53:49;;;;;;;7.00;4.32;;;-0.40;99.90;;;;;;2089992;28;20176;-69
2021/12/12 00:54:51;;;;;;;6.35;4.03;;;-0.40;99.90;;;;;;2073723;28;20189;-69
2021/12/12 00:55:53;;;;;;;6.38;3.72;;;-0.40;99.90;;;;;;2081930;28;20200;-69
2021/12/12 00:56:54;;;;;;;7.05;4.45;;;-0.40;99.90;;;;;;2081765;28;20185;-69
2021/12/12 00:57:55;;;;;;;7.63;4.73;;;-0.40;99.90;;;;;;2081830;28;20193;-69
2021/12/12 00:58:56;;;;;;;7.57;4.57;;;-0.40;99.90;;;;;;2089940;28;20418;-69
2021/12/12 00:59:57;;;;;;;7.75;4.82;;;-0.40;99.90;;;;;;2090004;28;20180;-69
2021/12/12 01:01:09;;;;;;;7.07;4.60;;;-0.40;99.90;;;;;;2090040;28;20259;-69
2021/12/12 01:02:17;;;;;;;10.55;4.82;;;-0.30;99.90;;;;;;2082533;28;20166;-69
2021/12/12 01:03:31;;;;;;;8.38;4.40;;;-0.40;99.90;;;;;;2082460;28;20678;-69
2021/12/12 01:04:40;;;;;;;9.35;4.72;;;-0.40;99.90;;;;;;2081938;28;20219;-69
2021/12/12 01:05:45;;;;;;;9.07;5.18;;;-0.40;99.90;;;;;;2081765;28;20247;-69
2021/12/12 01:06:48;;;;;;;6.93;4.65;;;-0.40;99.90;;;;;;2081840;28;20287;-69
2021/12/12 01:07:49;;;;;;;6.65;4.28;;;-0.40;99.90;;;;;;2082414;28;20284;-69
2021/12/12 01:08:53;;;;;;;6.95;4.32;;;-0.40;99.90;;;;;;2081718;28;20592;-69
2021/12/12 01:10:07;;;;;;;8.18;4.80;;;-0.40;99.90;;;;;;2082094;28;20219;-69
2021/12/12 01:11:15;;;;;;;8.10;4.68;;;-0.30;99.90;;;;;;2088333;28;20243;-69
2021/12/12 01:12:22;;;;;;;7.40;5.03;;;-0.30;99.90;;;;;;2081764;28;20618;-69
2021/12/12 01:13:23;;;;;;;5.20;3.42;;;-0.40;99.90;;;;;;2081797;28;20173;-69
2021/12/12 01:14:33;;;;;;;8.23;4.20;;;-0.40;99.20;;;;;;2089979;28;20184;-70
2021/12/12 01:15:48;;;;;;;6.45;3.83;;;-0.50;99.20;;;;;;2088860;28;20272;-71
2021/12/12 01:17:01;;;;;;;6.75;3.70;;;-0.60;99.70;;;;;;2081916;28;20598;-71
2021/12/12 01:18:08;;;;;;;8.07;3.63;;;-0.60;99.90;;;;;;2082365;28;20270;-70
2021/12/12 01:19:21;;;;;;;4.88;3.20;;;-0.60;99.90;;;;;;2082358;28;20622;-70
2021/12/12 01:20:37;;;;;;;5.38;3.00;;;-0.60;99.90;;;;;;2089998;28;20587;-70
2021/12/12 01:21:46;;;;;;;5.15;3.22;;;-0.60;99.90;;;;;;2087867;28;20230;-70
2021/12/12 01:22:50;;;;;;;4.57;3.25;;;-0.60;99.90;;;;;;2081794;28;20264;-70
2021/12/12 01:24:00;;;;;;;5.07;3.33;;;-0.60;99.90;;;;;;2082303;28;20554;-70
2021/12/12 01:25:12;;;;;;;4.60;3.08;;;-0.60;99.90;;;;;;2082280;28;20165;-70
2021/12/12 01:26:13;;;;;;;5.18;2.97;;;-0.60;99.90;;;;;;2082241;28;20669;-70
2021/12/12 01:27:14;;;;;;;5.60;3.05;;;-0.60;99.90;;;;;;2089835;28;20266;-70
2021/12/12 01:28:21;;;;;;;4.70;2.85;;;-0.60;99.90;;;;;;2089703;28;20223;-70
2021/12/12 01:29:22;;;;;;;4.30;2.90;;;-0.60;99.90;;;;;;2082348;28;20204;-70
2021/12/12 01:30:25;;;;;;;5.60;3.03;;;-0.70;99.90;;;;;;2081474;28;20216;-70
2021/12/12 01:31:32;;;;;;;5.25;2.67;;;-0.70;99.70;;;;;;2073673;28;20511;-70
2021/12/12 01:32:33;;;;;;;4.78;2.55;;;-0.70;99.70;;;;;;2074170;28;20306;-70
2021/12/12 01:33:36;;;;;;;6.57;3.10;;;-0.70;99.60;;;;;;2081716;28;20181;-71
2021/12/12 01:34:38;;;;;;;5.53;3.13;;;-0.70;99.60;;;;;;2081662;28;20589;-70
2021/12/12 01:35:40;;;;;;;4.80;3.28;;;-0.70;99.50;;;;;;2073738;28;20286;-69
2021/12/12 01:38:52;;;;;;;5.40;3.33;;;-0.70;99.50;;;;;;2081612;28;20203;-69
2021/12/12 01:39:33;;;;;;;4.53;3.17;;;-0.80;99.30;;;;;;2080579;28;20181;-69
2021/12/12 01:40:35;;;;;;;4.75;3.58;;;-0.80;99.30;;;;;;2076974;28;20701;-69
2021/12/12 01:41:47;;;;;;;5.80;3.50;;;-0.80;99.40;;;;;;2081692;28;20184;-69
2021/12/12 01:43:03;;;;;;;5.43;3.60;;;-0.80;99.50;;;;;;2081734;28;20172;-69
2021/12/12 01:44:13;;;;;;;4.68;2.92;;;-0.80;99.70;;;;;;2083777;28;20177;-69
2021/12/12 01:45:29;;;;;;;5.90;4.00;;;-0.90;99.70;;;;;;2088832;28;20284;-70
2021/12/12 01:46:36;;;;;;;4.90;3.40;;;-0.80;99.80;;;;;;2089719;28;20252;-69
2021/12/12 01:47:57;;;;;;;7.32;3.45;;;-0.80;99.80;;;;;;2088857;28;20176;-69
2021/12/12 01:49:07;;;;;;;6.32;3.25;;;-0.80;99.80;;;;;;2090005;28;20167;-69
2021/12/12 01:50:19;;;;;;;5.72;3.65;;;-0.80;99.90;;;;;;2090279;28;20161;-69
2021/12/12 01:51:21;;;;;;;6.55;3.70;;;-0.90;99.90;;;;;;2090378;28;20164;-69
2021/12/12 01:52:26;;;;;;;4.88;3.17;;;-0.90;99.80;;;;;;2089684;28;20610;-69
2021/12/12 01:53:32;;;;;;;7.40;3.97;;;-1.00;99.90;;;;;;2081931;28;20273;-69
2021/12/12 01:54:44;;;;;;;5.32;3.45;;;-1.00;99.70;;;;;;2089824;28;20267;-69
2021/12/12 01:55:53;;;;;;;5.45;3.72;;;-1.00;99.60;;;;;;2089832;28;20178;-69
2021/12/12 01:56:59;;;;;;;6.03;3.05;;;-1.10;99.50;;;;;;2082621;28;20191;-69
2021/12/12 01:58:06;;;;;;;5.53;2.90;;;-1.10;99.60;;;;;;2082042;28;20207;-69
2021/12/12 01:59:08;;;;;;;5.47;3.10;;;-1.20;99.40;;;;;;2082320;28;20181;-69
2021/12/12 02:00:25;;;;;;;4.03;2.65;;;-1.30;99.30;;;;;;2089588;28;20203;-69
2021/12/12 02:01:36;;;;;;;4.13;2.80;;;-1.40;99.40;;;;;;2089895;28;20566;-68
2021/12/12 02:02:37;;;;;;;4.53;2.67;;;-1.40;99.40;;;;;;2089637;28;20224;-69
2021/12/12 02:03:45;;;;;;;5.38;2.92;;;-1.50;99.40;;;;;;2081349;28;20556;-69
2021/12/12 02:04:52;;;;;;;4.78;3.22;;;-1.50;99.50;;;;;;2082450;28;20178;-69
2021/12/12 02:05:54;;;;;;;5.22;3.22;;;-1.60;99.50;;;;;;2089546;28;20183;-69
2021/12/12 02:06:57;;;;;;;5.95;3.65;;;-1.60;99.60;;;;;;2089486;28;20244;-69
2021/12/12 02:08:05;;;;;;;5.15;3.10;;;-1.70;99.60;;;;;;2081520;28;20211;-69
2021/12/12 02:09:07;;;;;;;4.80;3.45;;;-1.70;99.80;;;;;;2082482;28;20538;-69
2021/12/12 02:10:20;;;;;;;5.80;3.78;;;-1.80;99.80;;;;;;2081398;28;20185;-69
2021/12/12 02:11:28;;;;;;;8.30;4.10;;;-1.80;99.90;;;;;;2089718;28;20337;-69
2021/12/12 02:12:29;;;;;;;6.55;3.70;;;-1.90;99.90;;;;;;2089566;28;20254;-70
2021/12/12 02:13:39;;;;;;;6.30;3.53;;;-1.90;99.90;;;;;;2081390;28;20671;-68
2021/12/12 02:14:42;;;;;;;4.30;2.80;;;-1.90;99.90;;;;;;2082469;28;20165;-69
2021/12/12 02:15:51;;;;;;;5.55;3.50;;;-1.90;99.90;;;;;;2081575;28;20272;-69
2021/12/12 02:17:19;;;;;;;5.45;2.83;;;-1.90;99.90;;;;;;2082397;28;20172;-68
2021/12/12 02:18:31;;;;;;;5.13;3.13;;;-2.00;99.90;;;;;;2084976;28;20278;-68
2021/12/12 02:19:46;;;;;;;7.60;3.85;;;-2.00;99.90;;;;;;2089773;28;20614;-68
2021/12/12 02:21:10;;;;;;;6.05;3.20;;;-2.00;99.90;;;;;;2081063;28;20311;-69
2021/12/12 02:23:40;;;;;;;6.82;3.53;;;-2.00;99.90;;;;;;2089558;28;20187;-68
2021/12/12 02:36:11;;;;;;;4.47;2.92;;;-2.40;99.90;;;;;;2089292;28;20237;-68
2021/12/12 02:37:11;;;;;;;3.72;2.78;;;-2.40;99.90;;;;;;2081455;28;20282;-68
2021/12/12 02:38:25;;;;;;;6.83;2.97;;;-2.40;99.90;;;;;;2089288;28;20202;-68
2021/12/12 02:39:26;;;;;;;4.32;2.75;;;-2.40;99.90;;;;;;2089961;28;20213;-69
2021/12/12 02:40:35;;;;;;;4.50;2.80;;;-2.40;99.90;;;;;;2088684;28;20239;-68
2021/12/12 02:41:35;;;;;;;3.25;2.40;;;-2.40;99.90;;;;;;2089453;28;20162;-68
2021/12/12 02:42:38;;;;;;;3.43;2.50;;;-2.50;99.90;;;;;;2089914;28;20276;-68
2021/12/12 02:43:50;;;;;;;4.38;2.80;;;-2.40;99.90;;;;;;2089897;28;20182;-68
2021/12/12 02:44:57;;;;;;;3.35;2.42;;;-2.40;99.90;;;;;;2089321;28;20261;-69
2021/12/12 02:45:58;;;;;;;4.03;2.53;;;-2.40;99.90;;;;;;2081846;28;20190;-69
2021/12/12 02:47:10;;;;;;;4.90;2.90;;;-2.50;99.90;;;;;;2081499;28;20664;-69
2021/12/12 02:48:17;;;;;;;4.72;2.85;;;-2.50;99.90;;;;;;2089410;28;20204;-69
2021/12/12 02:50:44;;;;;;;5.85;3.38;;;-2.50;99.90;;;;;;2089419;28;20540;-69
2021/12/12 02:51:45;;;;;;;6.70;2.85;;;-2.50;99.90;;;;;;2089209;28;20170;-69
2021/12/12 02:53:25;;;;;;;4.53;2.73;;;-2.60;99.90;;;;;;2080983;28;20263;-69
2021/12/12 02:54:26;;;;;;;3.72;2.55;;;-2.60;99.90;;;;;;2089297;28;20199;-69
2021/12/12 02:55:36;;;;;;;3.97;3.03;;;-2.60;99.90;;;;;;2089104;28;20178;-69
2021/12/12 02:56:44;;;;;;;3.72;2.75;;;-2.60;99.90;;;;;;2082316;28;20172;-69
2021/12/12 02:57:45;;;;;;;3.40;2.83;;;-2.60;99.90;;;;;;2089225;28;20289;-69
2021/12/12 02:58:47;;;;;;;6.47;2.73;;;-2.70;99.90;;;;;;2089878;28;20231;-69
2021/12/12 02:59:50;;;;;;;7.80;3.10;;;-2.70;99.90;;;;;;2089680;28;20192;-69
2021/12/12 03:01:29;;;;;;;4.85;3.08;;;-2.70;99.90;;;;;;2089100;28;20191;-69
2021/12/12 03:02:33;;;;;;;4.30;2.72;;;-2.70;99.90;;;;;;2086079;28;20187;-69
2021/12/12 03:03:37;;;;;;;4.72;3.03;;;-2.80;99.90;;;;;;2089854;28;20182;-69
2021/12/12 03:04:38;;;;;;;3.58;2.30;;;-2.90;99.90;;;;;;2089129;28;20180;-69
2021/12/12 03:05:46;;;;;;;5.55;2.75;;;-2.90;99.90;;;;;;2081085;28;20203;-69
2021/12/12 03:06:47;;;;;;;3.58;2.42;;;-3.00;99.90;;;;;;2089194;28;20314;-69
2021/12/12 03:07:48;;;;;;;3.35;2.30;;;-3.00;99.90;;;;;;2088992;28;20214;-69
2021/12/12 03:08:53;;;;;;;5.13;2.70;;;-3.10;99.90;;;;;;2080937;28;20333;-69
2021/12/12 03:09:57;;;;;;;3.88;2.72;;;-3.10;99.90;;;;;;2081218;28;20253;-69
2021/12/12 03:10:58;;;;;;;3.25;2.40;;;-3.10;99.90;;;;;;2081323;28;20629;-69
2021/12/12 03:12:06;;;;;;;4.40;2.47;;;-3.10;99.90;;;;;;2080836;28;20256;-69
2021/12/12 03:13:08;;;;;;;5.15;2.60;;;-3.10;99.90;;;;;;2073027;28;20174;-69
2021/12/12 03:14:09;;;;;;;4.55;2.90;;;-3.10;99.90;;;;;;2073089;28;20180;-69
2021/12/12 03:15:22;;;;;;;3.63;2.60;;;-3.10;99.90;;;;;;2089156;28;20194;-69
2021/12/12 03:16:23;;;;;;;3.47;2.40;;;-3.10;99.90;;;;;;2089684;28;20258;-69
2021/12/12 03:17:25;;;;;;;3.47;2.30;;;-3.20;99.90;;;;;;2097129;28;20186;-69
2021/12/12 03:18:33;;;;;;;3.83;2.45;;;-3.20;99.90;;;;;;2089028;28;20197;-69
2021/12/12 03:19:35;;;;;;;4.00;2.38;;;-3.20;99.90;;;;;;2081953;28;20669;-69
2021/12/12 03:20:42;;;;;;;3.40;2.58;;;-3.20;99.90;;;;;;2080771;28;20185;-69
2021/12/12 03:21:45;;;;;;;4.30;2.67;;;-3.30;99.90;;;;;;2089007;28;20252;-69
2021/12/12 03:22:47;;;;;;;5.32;2.35;;;-3.30;99.90;;;;;;2089462;28;20678;-69
2021/12/12 03:23:52;;;;;;;6.38;2.95;;;-3.30;99.90;;;;;;2089048;28;20190;-69
2021/12/12 03:24:55;;;;;;;7.15;2.75;;;-3.30;99.90;;;;;;2081561;28;20208;-69
2021/12/12 03:26:04;;;;;;;4.75;2.33;;;-3.40;99.90;;;;;;2089059;28;20629;-69
2021/12/12 03:27:07;;;;;;;4.70;2.58;;;-3.40;99.90;;;;;;2089537;28;20271;-69
2021/12/12 03:28:12;;;;;;;3.90;2.63;;;-3.40;99.90;;;;;;2088985;28;20213;-69
2021/12/12 03:29:14;;;;;;;6.35;3.33;;;-3.40;99.90;;;;;;2088996;28;20176;-69
2021/12/12 03:30:17;;;;;;;5.20;3.55;;;-3.40;99.90;;;;;;2088944;28;20201;-69
2021/12/12 03:31:27;;;;;;;7.53;3.65;;;-3.40;99.90;;;;;;2089063;28;20645;-69
2021/12/12 03:32:28;;;;;;;5.22;3.10;;;-3.50;99.90;;;;;;2089013;28;20574;-69
2021/12/12 03:33:31;;;;;;;5.50;3.70;;;-3.50;99.90;;;;;;2089033;28;20289;-69
2021/12/12 03:34:39;;;;;;;4.82;3.28;;;-3.50;99.90;;;;;;2089587;28;20181;-69
2021/12/12 03:35:41;;;;;;;5.82;3.13;;;-3.50;99.90;;;;;;2089643;28;20172;-69
2021/12/12 03:36:43;;;;;;;5.75;3.10;;;-3.60;99.90;;;;;;2088756;28;20195;-69
2021/12/12 03:37:46;;;;;;;3.85;2.75;;;-3.60;99.90;;;;;;2088908;28;20686;-69
2021/12/12 03:38:56;;;;;;;4.72;3.17;;;-3.60;99.90;;;;;;2088934;28;20213;-69
2021/12/12 03:40:01;;;;;;;4.35;3.10;;;-3.60;99.90;;;;;;2081947;28;20175;-69
2021/12/12 03:41:07;;;;;;;8.25;2.90;;;-3.70;99.90;;;;;;2088928;28;20206;-69
2021/12/12 03:42:22;;;;;;;6.55;3.60;;;-3.70;99.90;;;;;;2088980;28;20178;-69
2021/12/12 03:43:23;;;;;;;10.38;3.10;;;-3.80;99.90;;;;;;2082321;28;20771;-69
2021/12/12 03:44:30;;;;;;;5.63;2.88;;;-3.90;99.90;;;;;;2080717;28;20182;-69
2021/12/12 03:45:31;;;;;;;4.82;2.95;;;-3.90;99.90;;;;;;2081448;28;20176;-69
2021/12/12 03:46:35;;;;;;;4.45;2.72;;;-3.90;99.90;;;;;;2088979;28;20229;-69
2021/12/12 03:47:43;;;;;;;4.28;2.63;;;-3.80;99.90;;;;;;2088688;28;20264;-68
2021/12/12 03:48:44;;;;;;;4.90;2.83;;;-3.80;99.90;;;;;;2089098;28;20175;-69
2021/12/12 03:49:46;;;;;;;6.07;3.10;;;-3.80;99.90;;;;;;2088908;28;20182;-69
2021/12/12 03:50:50;;;;;;;4.57;3.20;;;-3.80;99.90;;;;;;2088710;28;20198;-69
2021/12/12 03:51:51;;;;;;;6.18;2.60;;;-3.80;99.90;;;;;;2089413;28;20187;-69
2021/12/12 03:52:52;;;;;;;7.85;3.22;;;-3.90;99.90;;;;;;2088919;28;20175;-69
2021/12/12 03:53:54;;;;;;;6.03;2.97;;;-3.90;99.90;;;;;;2088891;28;20280;-69
2021/12/12 03:54:59;;;;;;;5.53;2.85;;;-4.00;99.90;;;;;;2088848;28;20182;-69
2021/12/12 03:56:00;;;;;;;8.65;3.50;;;-4.00;99.90;;;;;;2088618;28;20232;-69
2021/12/12 03:57:03;;;;;;;5.95;3.15;;;-4.00;99.90;;;;;;2081086;28;20248;-69
2021/12/12 03:58:07;;;;;;;4.45;2.55;;;-4.00;99.90;;;;;;2080770;28;20209;-69
2021/12/12 03:59:08;;;;;;;5.28;2.78;;;-4.10;99.90;;;;;;2080890;28;20220;-69
2021/12/12 04:00:20;;;;;;;5.82;2.75;;;-4.10;99.90;;;;;;2088670;28;20805;-69
2021/12/12 04:01:37;;;;;;;4.07;2.63;;;-4.10;99.90;;;;;;2089499;28;20172;-69
2021/12/12 04:02:38;;;;;;;6.22;2.38;;;-4.20;99.90;;;;;;2089445;28;20199;-69
2021/12/12 04:03:41;;;;;;;4.38;2.55;;;-4.20;99.90;;;;;;2089337;28;20232;-69
2021/12/12 04:04:45;;;;;;;5.07;2.60;;;-4.20;99.90;;;;;;2088758;28;20211;-69
2021/12/12 04:05:56;;;;;;;4.18;2.60;;;-4.30;99.90;;;;;;2088737;28;20265;-68
2021/12/12 04:06:59;;;;;;;9.45;2.45;;;-4.30;99.90;;;;;;2089375;28;20191;-69
2021/12/12 04:08:00;;;;;;;5.45;2.85;;;-4.30;99.90;;;;;;2089270;28;20207;-69
2021/12/12 04:09:03;;;;;;;4.75;2.60;;;-4.30;99.90;;;;;;2089409;28;20200;-69
2021/12/12 04:10:10;;;;;;;4.93;2.40;;;-4.40;99.90;;;;;;2089140;28;20702;-69
2021/12/12 04:11:36;;;;;;;3.35;2.30;;;-4.40;99.90;;;;;;2088759;28;20162;-69
2021/12/12 04:12:36;;;;;;;5.50;2.92;;;-4.40;99.90;;;;;;2088921;28;20619;-69
2021/12/12 04:13:41;;;;;;;5.37;3.10;;;-4.40;99.90;;;;;;2089291;28;20203;-69
2021/12/12 04:14:44;;;;;;;4.47;2.67;;;-4.50;99.90;;;;;;2088672;28;20188;-69
2021/12/12 04:15:54;;;;;;;6.93;3.33;;;-4.50;99.90;;;;;;2080831;28;20656;-69
2021/12/12 04:17:02;;;;;;;5.78;2.70;;;-4.60;99.90;;;;;;2088712;28;20286;-69
2021/12/12 04:18:04;;;;;;;6.10;2.85;;;-4.60;99.90;;;;;;2088541;28;20582;-69
2021/12/12 04:19:07;;;;;;;4.47;2.50;;;-4.60;99.90;;;;;;2080536;28;20264;-69
2021/12/12 04:20:30;;;;;;;6.00;3.05;;;-4.70;99.90;;;;;;2080416;28;20678;-69
2021/12/12 04:21:31;;;;;;;5.63;3.00;;;-4.70;99.90;;;;;;2089017;28;20299;-69
2021/12/12 04:22:34;;;;;;;3.75;2.60;;;-4.70;99.90;;;;;;2089242;28;20314;-68
2021/12/12 04:23:35;;;;;;;6.65;3.28;;;-4.70;99.90;;;;;;2088733;28;20208;-69
2021/12/12 04:24:41;;;;;;;6.80;3.07;;;-4.70;99.90;;;;;;2089390;28;20553;-69
2021/12/12 04:25:42;;;;;;;4.88;3.08;;;-4.80;99.90;;;;;;2090323;28;20275;-69
2021/12/12 04:26:43;;;;;;;5.20;3.43;;;-4.80;99.90;;;;;;2090236;28;20645;-69
2021/12/12 04:27:44;;;;;;;4.38;2.90;;;-4.80;99.90;;;;;;2090886;28;20203;-69
2021/12/12 04:29:08;;;;;;;5.63;3.00;;;-4.80;99.90;;;;;;2090924;28;20609;-69
2021/12/12 04:30:11;;;;;;;6.25;3.72;;;-4.80;99.90;;;;;;2090212;28;20175;-69
2021/12/12 04:31:12;;;;;;;5.38;3.15;;;-4.80;99.90;;;;;;2090235;28;20176;-69
2021/12/12 04:32:21;;;;;;;4.70;2.63;;;-4.90;99.90;;;;;;2090255;28;20204;-69
2021/12/12 04:33:22;;;;;;;7.22;3.78;;;-4.90;99.90;;;;;;2083220;28;20241;-69
2021/12/12 04:34:31;;;;;;;9.00;4.00;;;-4.90;99.90;;;;;;2089868;28;20188;-69
2021/12/12 04:35:32;;;;;;;6.75;2.85;;;-4.90;99.90;;;;;;2090779;28;20169;-69
2021/12/12 04:36:41;;;;;;;5.53;2.92;;;-5.00;99.90;;;;;;2090262;28;20272;-69
2021/12/12 04:37:44;;;;;;;22.30;4.30;;;-5.00;99.90;;;;;;2090239;28;20692;-69
2021/12/12 04:38:45;;;;;;;22.25;6.03;;;-5.00;99.90;;;;;;2090854;28;20652;-69
2021/12/12 04:39:50;;;;;;;18.67;5.20;;;-5.00;99.90;;;;;;2090817;28;20184;-69
2021/12/12 04:40:50;;;;;;;23.85;6.47;;;-5.00;99.90;;;;;;2090839;28;20176;-69
2021/12/12 04:41:57;;;;;;;19.67;6.33;;;-5.00;99.90;;;;;;2090819;28;20188;-69
2021/12/12 04:42:59;;;;;;;16.02;5.70;;;-5.00;99.90;;;;;;2090309;28;20172;-69
2021/12/12 04:44:00;;;;;;;15.90;6.07;;;-5.00;99.90;;;;;;2090170;28;20176;-69
2021/12/12 04:45:51;;;;;;;19.40;5.50;;;-5.00;99.90;;;;;;2090883;28;20172;-69
2021/12/12 04:50:39;;;;;;;5.30;3.10;;;-4.90;99.90;;;;;;2090585;28;20189;-69
2021/12/12 04:51:53;;;;;;;5.57;2.90;;;-4.90;99.90;;;;;;2090217;28;20260;-69
2021/12/12 04:53:27;;;;;;;4.82;2.85;;;-4.90;99.90;;;;;;2083795;28;20173;-69
2021/12/12 04:54:39;;;;;;;5.85;3.50;;;-4.90;99.90;;;;;;2090466;28;20592;-69
2021/12/12 04:56:18;;;;;;;8.63;3.42;;;-4.90;99.90;;;;;;2090184;28;20578;-69
2021/12/12 04:57:36;;;;;;;4.22;2.83;;;-4.90;99.90;;;;;;2086795;28;20736;-69
2021/12/12 04:58:39;;;;;;;6.15;3.63;;;-4.90;99.90;;;;;;2090224;28;20571;-69
2021/12/12 04:59:51;;;;;;;5.30;3.38;;;-4.90;99.90;;;;;;2089991;28;20375;-69
2021/12/12 05:00:59;;;;;;;6.95;3.75;;;-4.90;99.90;;;;;;2083269;28;20181;-69
2021/12/12 05:02:21;;;;;;;6.30;4.00;;;-4.90;99.90;;;;;;2082843;28;20200;-69
2021/12/12 05:03:36;;;;;;;6.60;4.03;;;-4.90;99.90;;;;;;2084554;28;20185;-69
2021/12/12 05:04:58;;;;;;;5.15;3.58;;;-4.90;99.90;;;;;;2090201;28;20582;-69
2021/12/12 05:06:08;;;;;;;7.55;3.60;;;-4.90;99.90;;;;;;2090008;28;20234;-69
2021/12/12 05:07:53;;;;;;;5.97;4.05;;;-4.90;99.90;;;;;;2090002;28;20189;-69
2021/12/12 05:09:22;;;;;;;8.02;3.63;;;-4.90;99.90;;;;;;2090071;28;20192;-69
2021/12/12 05:10:32;;;;;;;6.68;3.72;;;-4.90;99.90;;;;;;2089377;28;20180;-69
2021/12/12 05:11:51;;;;;;;4.68;3.30;;;-5.00;99.90;;;;;;2083098;28;20265;-69
2021/12/12 05:13:00;;;;;;;4.68;2.97;;;-5.00;99.90;;;;;;2084270;28;20757;-69
2021/12/12 05:14:13;;;;;;;5.88;3.40;;;-5.00;99.90;;;;;;2082938;28;20161;-69
2021/12/12 05:15:22;;;;;;;6.22;2.97;;;-5.10;99.90;;;;;;2083372;28;20165;-69
2021/12/12 05:16:30;;;;;;;5.78;3.47;;;-5.10;99.90;;;;;;2082895;28;20173;-69
2021/12/12 05:17:51;;;;;;;4.63;3.45;;;-5.10;99.90;;;;;;2082514;28;20619;-69
2021/12/12 05:19:04;;;;;;;6.07;3.28;;;-5.10;99.90;;;;;;2084328;28;20188;-69
2021/12/12 05:20:13;;;;;;;4.65;3.15;;;-5.10;99.90;;;;;;2090002;28;20647;-69
2021/12/12 05:21:17;;;;;;;6.63;3.50;;;-5.10;99.90;;;;;;2089878;28;20200;-69
2021/12/12 05:22:31;;;;;;;5.40;3.05;;;-5.10;99.90;;;;;;2073936;28;20197;-69
2021/12/12 05:23:34;;;;;;;4.43;2.90;;;-5.10;99.90;;;;;;2077130;28;20184;-69
2021/12/12 05:24:37;;;;;;;6.65;3.78;;;-5.10;99.90;;;;;;2081844;28;20178;-69
2021/12/12 05:25:52;;;;;;;5.63;3.65;;;-5.10;99.90;;;;;;2082106;28;20178;-69
2021/12/12 05:26:57;;;;;;;5.10;2.88;;;-5.10;99.90;;;;;;2083614;28;20177;-69
2021/12/12 05:28:00;;;;;;;5.85;3.33;;;-5.10;99.90;;;;;;2082314;28;20197;-69
2021/12/12 05:29:07;;;;;;;4.63;3.33;;;-5.00;99.90;;;;;;2081977;28;20674;-69
2021/12/12 05:30:15;;;;;;;6.53;3.58;;;-5.10;99.90;;;;;;2082269;28;20177;-69
2021/12/12 05:31:20;;;;;;;5.97;3.40;;;-5.10;99.90;;;;;;2089993;28;20161;-69
2021/12/12 05:32:22;;;;;;;6.28;3.58;;;-5.10;99.90;;;;;;2089832;28;20206;-69
2021/12/12 05:33:23;;;;;;;5.00;3.53;;;-5.10;99.90;;;;;;2089832;28;20180;-69
2021/12/12 05:34:30;;;;;;;6.35;3.50;;;-5.20;99.90;;;;;;2089819;28;20191;-69
2021/12/12 05:35:36;;;;;;;4.78;3.53;;;-5.20;99.90;;;;;;2082348;28;20169;-69
2021/12/12 05:36:37;;;;;;;8.00;4.30;;;-5.30;99.90;;;;;;2081726;28;20653;-69
2021/12/12 05:37:39;;;;;;;5.65;3.80;;;-5.30;99.90;;;;;;2081481;28;20662;-69
2021/12/12 05:38:40;;;;;;;5.65;3.72;;;-5.40;99.90;;;;;;2081749;28;20181;-69
2021/12/12 05:39:41;;;;;;;5.85;3.20;;;-5.40;99.90;;;;;;2081552;28;20181;-69
2021/12/12 05:40:45;;;;;;;10.95;4.32;;;-5.40;99.90;;;;;;2089549;28;20207;-69
2021/12/12 05:41:48;;;;;;;6.20;3.78;;;-5.50;99.90;;;;;;2081864;28;20680;-69
2021/12/12 05:42:55;;;;;;;5.72;3.60;;;-5.50;99.90;;;;;;2081886;28;20173;-69
2021/12/12 05:43:57;;;;;;;7.28;3.78;;;-5.50;99.90;;;;;;2082659;28;20263;-69
2021/12/12 05:45:00;;;;;;;7.95;3.83;;;-5.60;99.90;;;;;;2081809;28;20247;-69
2021/12/12 05:46:01;;;;;;;15.30;6.85;;;-5.60;99.90;;;;;;2089633;28;20278;-68
2021/12/12 05:47:06;;;;;;;31.25;12.90;;;-5.60;99.90;;;;;;2089707;28;20259;-69
2021/12/12 05:48:08;;;;;;;25.20;10.50;;;-5.70;99.90;;;;;;2089712;28;20207;-69
2021/12/12 05:49:10;;;;;;;12.95;6.93;;;-5.70;99.90;;;;;;2089833;28;20176;-69
2021/12/12 05:50:13;;;;;;;11.75;6.20;;;-5.80;99.90;;;;;;2089683;28;20208;-69
2021/12/12 05:51:15;;;;;;;7.72;4.63;;;-5.80;99.90;;;;;;2089420;28;20218;-69
2021/12/12 05:52:20;;;;;;;7.55;4.45;;;-5.70;99.90;;;;;;2081323;28;20217;-69
2021/12/12 05:53:21;;;;;;;6.78;4.18;;;-5.70;99.90;;;;;;2081428;28;20728;-69
2021/12/12 05:54:25;;;;;;;6.13;3.72;;;-5.70;99.90;;;;;;2081404;28;20204;-69
2021/12/12 05:55:30;;;;;;;9.40;4.38;;;-5.70;99.90;;;;;;2090354;28;20566;-69
2021/12/12 05:56:35;;;;;;;8.25;4.40;;;-5.70;99.90;;;;;;2089705;28;20684;-69
2021/12/12 05:57:37;;;;;;;12.35;6.85;;;-5.70;99.90;;;;;;2089709;28;20185;-69
2021/12/12 05:58:38;;;;;;;15.95;7.13;;;-5.70;99.90;;;;;;2089532;28;20185;-69
2021/12/12 05:59:39;;;;;;;19.00;9.00;;;-5.70;99.90;;;;;;2081421;28;20184;-69
2021/12/12 06:00:57;;;;;;;27.03;11.10;;;-5.70;99.90;;;;;;2081268;28;20192;-69
2021/12/12 06:02:03;;;;;;;19.70;8.95;;;-5.80;99.90;;;;;;2083758;28;20408;-69
2021/12/12 06:03:09;;;;;;;22.45;10.98;;;-5.80;99.90;;;;;;2082087;28;20165;-69
2021/12/12 06:04:11;;;;;;;30.15;12.07;;;-5.80;99.90;;;;;;2082672;28;20231;-69
2021/12/12 06:05:12;;;;;;;17.42;8.90;;;-5.80;99.90;;;;;;2081409;28;20261;-69
2021/12/12 06:06:30;;;;;;;14.93;7.38;;;-5.80;99.90;;;;;;2089497;28;20184;-69